Time;durP1;ratioP1;P1;durP2;ratioP2;P2;SDS_P1;SDS_P2;PMS_P1;PMS_P2;Temp;Humidity;BMP_temperature;BMP_pressure;BME280_temperature;BME280_humidity;BME280_pressure;Samples;Min_cycle;Max_cycle;Signal;HPM_P1;HPM_P2
2021/03/28 00:04:05;;;;;;;5.70;4.10;;;;;;;0.52;74.79;100355.91;471711;1171;114347;-67
2021/03/28 00:14:10;;;;;;;6.27;3.70;;;;;;;0.41;75.73;100365.50;471502;1171;114076;-69
2021/03/28 00:24:23;;;;;;;5.55;3.25;;;;;;;0.53;75.85;100361.91;471270;1171;115094;-68
2021/03/28 00:34:30;;;;;;;5.00;3.07;;;;;;;0.51;75.18;100361.92;471037;1170;113619;-69
2021/03/28 00:44:43;;;;;;;9.30;3.10;;;;;;;0.49;75.74;100358.50;470491;1171;113946;-66
2021/03/28 00:54:51;;;;;;;4.53;3.00;;;;;;;0.39;75.40;100373.25;470084;1171;113672;-67
2021/03/28 01:05:31;;;;;;;4.80;2.60;;;;;;;0.42;75.68;100374.95;471412;1171;113683;-68
2021/03/28 01:16:16;;;;;;;7.75;3.55;;;;;;;0.64;75.42;100377.33;463228;1169;10001909;-61
2021/03/28 01:26:40;;;;;;;10.10;4.00;;;;;;;0.73;75.91;100384.13;476621;1170;114441;-63
2021/03/28 01:36:48;;;;;;;7.80;3.53;;;;;;;1.09;75.55;100385.41;471376;1170;114189;-63
2021/03/28 01:47:05;;;;;;;4.07;2.80;;;;;;;1.27;74.90;100388.66;470012;1170;113905;-63
2021/03/28 01:57:33;;;;;;;;;;;;;;;1.44;74.62;100383.27;471416;1171;113573;-63
2021/03/28 02:07:56;;;;;;;6.33;3.13;;;;;;;1.09;74.18;100387.16;470584;1171;101077;-63
2021/03/28 02:18:17;;;;;;;9.20;3.67;;;;;;;0.98;74.27;100413.14;471691;1170;113484;-64
2021/03/28 02:28:32;;;;;;;8.37;4.17;;;;;;;1.13;74.65;100406.09;470426;1171;113867;-63
2021/03/28 02:39:00;;;;;;;5.40;3.50;;;;;;;1.32;74.41;100414.48;470244;1170;113907;-64
2021/03/28 02:49:25;;;;;;;6.20;3.97;;;;;;;1.47;74.35;100421.20;470979;1171;114693;-64
2021/03/28 02:59:45;;;;;;;6.03;3.30;;;;;;;1.59;73.60;100438.28;471285;1171;113881;-64
2021/03/28 03:10:13;;;;;;;5.70;4.03;;;;;;;1.57;74.25;100440.92;470053;1171;113920;-63
2021/03/28 03:20:35;;;;;;;9.17;4.63;;;;;;;1.64;73.94;100457.22;471307;1171;114027;-63
2021/03/28 03:30:51;;;;;;;5.67;3.93;;;;;;;1.72;73.68;100457.12;471419;1171;114423;-63
2021/03/28 03:41:30;;;;;;;6.47;4.33;;;;;;;1.74;73.81;100460.53;470553;1170;114416;-64
2021/03/28 03:51:53;;;;;;;6.20;4.90;;;;;;;1.82;74.29;100479.42;471193;1169;114070;-63
2021/03/28 04:02:03;;;;;;;6.63;4.17;;;;;;;1.87;74.10;100485.38;470577;1171;113620;-63
2021/03/28 04:12:43;;;;;;;6.53;3.50;;;;;;;1.86;73.99;100498.38;471415;1171;114192;-63
2021/03/28 04:23:04;;;;;;;6.90;4.30;;;;;;;1.80;74.06;100512.26;470155;1171;114052;-63
2021/03/28 04:33:20;;;;;;;5.75;4.20;;;;;;;1.72;74.02;100516.67;471751;1171;114717;-63
2021/03/28 04:43:49;;;;;;;6.50;4.30;;;;;;;1.71;74.13;100540.86;470164;1171;113607;-63
2021/03/28 04:54:21;;;;;;;6.80;5.20;;;;;;;1.73;73.85;100542.56;470320;1171;113717;-62
2021/03/28 05:05:03;;;;;;;9.03;6.03;;;;;;;1.84;73.93;100563.13;471059;1171;113655;-62
2021/03/28 05:15:47;;;;;;;9.67;7.00;;;;;;;1.81;74.38;100587.33;470056;1171;114132;-63
2021/03/28 05:26:30;;;;;;;12.27;9.33;;;;;;;1.93;73.98;100606.19;470425;1171;114316;-62
2021/03/28 05:37:10;;;;;;;14.70;11.53;;;;;;;1.96;73.81;100614.78;471952;1170;114101;-63
2021/03/28 05:47:34;;;;;;;14.90;11.85;;;;;;;2.07;74.04;100637.12;470160;1170;114020;-63
2021/03/28 05:58:02;;;;;;;15.00;12.15;;;;;;;2.19;73.82;100638.69;471397;1171;114429;-63
2021/03/28 06:08:46;;;;;;;11.93;10.50;;;;;;;2.41;73.76;100649.65;471146;1170;114400;-64
2021/03/28 06:19:22;;;;;;;14.70;10.13;;;;;;;2.64;73.23;100651.08;470211;1171;114089;-62
2021/03/28 06:30:12;;;;;;;12.00;9.80;;;;;;;3.07;73.11;100660.81;470008;1169;114309;-63
2021/03/28 06:40:39;;;;;;;12.85;9.90;;;;;;;3.95;72.38;100667.08;469963;1171;114399;-63
2021/03/28 06:51:06;;;;;;;10.70;9.60;;;;;;;5.82;70.80;100667.13;470829;1171;114006;-63
2021/03/28 07:01:59;;;;;;;13.48;11.88;;;;;;;7.14;66.07;100678.12;471188;1171;114243;-63
2021/03/28 07:12:07;;;;;;;12.30;10.10;;;;;;;6.44;66.46;100678.49;471725;1170;114845;-61
2021/03/28 07:22:37;;;;;;;12.83;11.30;;;;;;;8.02;63.67;100679.48;471782;1171;114790;-63
2021/03/28 07:33:00;;;;;;;23.50;11.80;;;;;;;8.86;63.72;100694.75;471747;1171;114575;-64
2021/03/28 07:43:28;;;;;;;10.20;9.10;;;;;;;13.91;56.63;100689.31;471285;1171;114359;-63
2021/03/28 07:53:48;;;;;;;;;;;;;;;18.73;54.45;100698.16;471473;1171;114453;-63
2021/03/28 08:04:04;;;;;;;8.40;7.45;;;;;;;16.75;49.66;100694.48;471252;1171;101463;-63
2021/03/28 08:14:39;;;;;;;7.30;6.60;;;;;;;21.03;43.28;100694.70;470165;1171;114115;-62
2021/03/28 08:25:03;;;;;;;7.75;7.05;;;;;;;16.51;44.67;100716.50;469821;1171;114032;-62
2021/03/28 08:35:27;;;;;;;8.25;6.85;;;;;;;14.97;43.56;100713.56;471429;1170;114145;-63
2021/03/28 08:45:33;;;;;;;7.70;6.87;;;;;;;12.47;46.51;100717.61;471772;1171;114056;-62
2021/03/28 08:56:29;;;;;;;8.10;7.10;;;;;;;13.11;45.31;100714.99;471552;1171;114008;-64
2021/03/28 09:06:48;;;;;;;7.93;6.57;;;;;;;12.11;46.09;100721.28;479906;1171;114748;-63
2021/03/28 09:17:02;;;;;;;10.10;7.20;;;;;;;10.94;47.13;100713.84;455540;1170;10113224;-62
2021/03/28 09:27:31;;;;;;;9.43;6.87;;;;;;;10.69;48.24;100720.26;471032;1170;115580;-64
2021/03/28 09:37:49;;;;;;;11.83;5.07;;;;;;;11.10;47.20;100710.50;470494;1170;114054;-65
2021/03/28 09:48:08;;;;;;;9.90;4.83;;;;;;;11.18;47.28;100705.70;471387;1171;115089;-65
2021/03/28 09:58:38;;;;;;;5.30;4.40;;;;;;;11.09;46.29;100701.75;471478;1170;114116;-64
2021/03/28 10:08:46;;;;;;;6.27;4.80;;;;;;;11.23;46.49;100689.70;471376;1171;114363;-64
2021/03/28 10:19:19;;;;;;;6.57;4.77;;;;;;;10.98;45.83;100681.26;470220;1171;114398;-66
2021/03/28 10:30:01;;;;;;;7.30;4.30;;;;;;;10.77;45.99;100688.38;470781;1170;114381;-65
2021/03/28 10:40:26;;;;;;;5.17;3.60;;;;;;;10.91;45.73;100691.22;470697;1171;113961;-65
2021/03/28 10:51:14;;;;;;;7.10;3.67;;;;;;;10.50;45.45;100691.38;470951;1170;114291;-64
2021/03/28 11:02:02;;;;;;;4.40;3.05;;;;;;;10.67;44.93;100693.22;471111;1171;114072;-64
2021/03/28 11:12:39;;;;;;;4.47;3.20;;;;;;;10.78;44.25;100690.07;469701;1171;114547;-65
2021/03/28 11:22:58;;;;;;;5.48;3.80;;;;;;;10.53;45.26;100704.36;471073;1171;114354;-65
2021/03/28 11:33:20;;;;;;;8.50;3.67;;;;;;;10.51;45.50;100708.83;473908;1170;114849;-63
2021/03/28 11:43:37;;;;;;;7.25;4.20;;;;;;;10.21;45.09;100718.00;475128;1171;114392;-65
2021/03/28 11:53:42;;;;;;;6.20;2.73;;;;;;;10.00;45.16;100713.69;469659;1170;114503;-66
2021/03/28 12:03:47;;;;;;;6.30;3.57;;;;;;;10.05;43.71;100706.48;471480;1171;114054;-64
2021/03/28 12:13:51;;;;;;;8.33;3.23;;;;;;;9.88;44.29;100715.09;471088;1170;114422;-65
2021/03/28 12:24:02;;;;;;;4.00;2.73;;;;;;;9.93;44.30;100729.72;469656;1171;114359;-65
2021/03/28 12:34:24;;;;;;;3.73;2.60;;;;;;;10.01;44.02;100731.14;469888;1171;114438;-64
2021/03/28 12:44:32;;;;;;;6.17;3.17;;;;;;;10.17;43.60;100723.45;471189;1171;114755;-64
2021/03/28 12:55:01;;;;;;;6.47;3.47;;;;;;;10.42;43.33;100719.75;471089;1171;114008;-64
2021/03/28 13:05:19;;;;;;;4.07;2.20;;;;;;;10.64;42.80;100711.75;471051;1170;114103;-64
2021/03/28 13:15:31;;;;;;;5.40;2.00;;;;;;;10.34;42.76;100699.94;470821;1171;114360;-64
2021/03/28 13:25:35;;;;;;;3.90;2.53;;;;;;;10.42;43.26;100702.23;471604;1171;114047;-64
2021/03/28 13:35:41;;;;;;;7.97;2.40;;;;;;;10.71;42.90;100700.02;471121;1170;114262;-64
2021/03/28 13:45:48;;;;;;;4.27;2.33;;;;;;;10.59;42.68;100708.47;469889;1171;114589;-64
2021/03/28 13:56:04;;;;;;;5.97;2.30;;;;;;;10.71;42.26;100702.64;469800;1171;114406;-64
2021/03/28 14:06:24;;;;;;;3.67;1.83;;;;;;;10.56;42.35;100700.75;469918;1171;114018;-64
2021/03/28 14:16:31;;;;;;;4.40;2.00;;;;;;;10.36;41.83;100702.47;471352;1171;114369;-65
2021/03/28 14:26:42;;;;;;;5.67;1.70;;;;;;;10.01;42.09;100707.52;471283;1171;114007;-64
2021/03/28 14:37:39;;;;;;;5.90;2.37;;;;;;;9.91;42.71;100707.92;462403;1171;10001646;-64
2021/03/28 14:48:07;;;;;;;1.73;1.60;;;;;;;9.95;42.85;100701.64;484613;1171;114341;-63
2021/03/28 14:58:24;;;;;;;;;;;;;;;9.70;42.68;100695.75;471582;1170;114263;-64
2021/03/28 15:08:36;;;;;;;3.20;2.10;;;;;;;9.68;42.39;100704.52;463183;1171;10099690;-64
2021/03/28 15:18:55;;;;;;;6.60;2.40;;;;;;;9.32;42.74;100694.66;471491;1170;115024;-63
2021/03/28 15:29:03;;;;;;;5.17;3.00;;;;;;;9.03;43.27;100693.22;470464;1170;115013;-64
2021/03/28 15:39:54;;;;;;;4.33;2.23;;;;;;;9.13;43.43;100698.96;471412;1171;113917;-65
2021/03/28 15:50:15;;;;;;;6.20;2.33;;;;;;;8.77;43.71;100697.72;469966;1171;113795;-65
2021/03/28 16:00:33;;;;;;;6.90;1.90;;;;;;;8.42;43.93;100708.58;470254;1171;114242;-63
2021/03/28 16:10:44;;;;;;;3.77;2.27;;;;;;;8.07;44.21;100705.48;471716;1170;114265;-63
2021/03/28 16:21:10;;;;;;;6.03;2.83;;;;;;;7.71;44.74;100697.11;470330;1170;114095;-64
2021/03/28 16:31:30;;;;;;;7.15;2.35;;;;;;;7.38;44.99;100693.89;470902;1171;113886;-64
2021/03/28 16:41:50;;;;;;;6.60;4.35;;;;;;;7.03;46.01;100693.28;470482;1171;114153;-64
2021/03/28 16:52:05;;;;;;;9.50;2.85;;;;;;;6.58;46.76;100698.97;471897;1170;114254;-63
2021/03/28 17:02:38;;;;;;;5.70;2.40;;;;;;;6.08;47.34;100699.52;471145;1171;113778;-64
2021/03/28 17:12:45;;;;;;;8.27;4.10;;;;;;;5.58;47.80;100699.92;470785;1171;114165;-64
2021/03/28 17:23:00;;;;;;;12.35;4.78;;;;;;;5.12;49.45;100700.16;471470;1171;113943;-65
2021/03/28 17:33:03;;;;;;;20.60;8.53;;;;;;;4.68;50.49;100702.89;471985;1170;115018;-65
2021/03/28 17:43:56;;;;;;;42.63;19.50;;;;;;;4.32;51.47;100710.55;471455;1171;114025;-66
2021/03/28 17:54:34;;;;;;;51.50;27.23;;;;;;;3.88;53.33;100716.59;470763;1171;114419;-66
2021/03/28 18:04:40;;;;;;;55.77;29.77;;;;;;;3.53;54.03;100725.86;470808;1171;114042;-64
2021/03/28 18:14:45;;;;;;;83.93;43.27;;;;;;;3.30;55.03;100721.02;471741;1171;114325;-66
2021/03/28 18:24:54;;;;;;;115.23;61.97;;;;;;;3.10;55.84;100722.17;463490;1171;10001468;-67
2021/03/28 18:35:02;;;;;;;109.27;62.07;;;;;;;2.99;56.66;100740.51;471430;1171;152015;-64
2021/03/28 18:45:34;;;;;;;106.60;61.00;;;;;;;2.86;56.94;100745.00;471422;1171;114522;-64
2021/03/28 18:55:46;;;;;;;100.97;59.77;;;;;;;2.76;57.50;100746.00;471132;1170;114537;-64
2021/03/28 19:05:53;;;;;;;107.45;59.20;;;;;;;2.67;57.99;100749.57;471433;1171;114878;-64
2021/03/28 19:15:59;;;;;;;95.83;53.23;;;;;;;2.66;58.43;100753.05;471222;1171;114561;-65
2021/03/28 19:26:25;;;;;;;77.30;47.07;;;;;;;2.52;58.96;100748.89;471192;1171;114006;-63
2021/03/28 19:36:29;;;;;;;85.33;50.63;;;;;;;2.40;58.78;100758.54;471190;1171;113982;-69
2021/03/28 19:46:59;;;;;;;85.80;50.57;;;;;;;2.29;59.32;100748.30;471382;1171;114089;-69
2021/03/28 19:57:06;;;;;;;85.30;51.20;;;;;;;2.15;60.25;100751.03;471148;1171;114436;-70
2021/03/28 20:07:08;;;;;;;86.25;49.60;;;;;;;2.00;59.94;100757.23;471542;1171;114733;-69
2021/03/28 20:17:12;;;;;;;79.10;45.37;;;;;;;1.89;60.73;100750.41;471127;1171;115185;-70
2021/03/28 20:27:18;;;;;;;72.10;41.60;;;;;;;1.93;60.99;100749.53;471033;1170;114152;-68
2021/03/28 20:37:25;;;;;;;73.40;42.40;;;;;;;2.01;61.01;100746.86;471451;1171;114564;-69
2021/03/28 20:47:33;;;;;;;68.53;42.90;;;;;;;1.90;61.51;100752.13;471093;1171;114100;-65
2021/03/28 20:57:37;;;;;;;64.37;37.40;;;;;;;1.68;61.96;100752.34;471237;1171;114179;-68
2021/03/28 21:07:41;;;;;;;63.85;41.20;;;;;;;1.43;62.11;100745.63;470454;1171;114431;-67
2021/03/28 21:17:45;;;;;;;60.87;35.13;;;;;;;1.23;62.75;100741.48;469775;1171;114605;-64
2021/03/28 21:27:50;;;;;;;53.30;31.30;;;;;;;1.10;63.04;100743.28;470832;1171;114106;-61
2021/03/28 21:37:54;;;;;;;54.70;31.37;;;;;;;0.95;63.10;100746.81;469594;1171;114285;-64
2021/03/28 21:48:09;;;;;;;49.33;27.87;;;;;;;0.85;63.86;100743.42;470244;1171;114246;-64
2021/03/28 21:58:13;;;;;;;49.35;27.65;;;;;;;0.89;63.95;100752.88;471259;1171;114487;-62
2021/03/28 22:08:19;;;;;;;50.40;27.00;;;;;;;0.88;64.62;100748.57;469819;1171;115212;-64
2021/03/28 22:18:24;;;;;;;46.33;24.98;;;;;;;0.84;64.65;100752.89;470772;1170;114368;-63
2021/03/28 22:28:30;;;;;;;42.45;25.70;;;;;;;0.86;64.66;100754.61;470924;1170;114417;-63
2021/03/28 22:38:38;;;;;;;48.83;24.93;;;;;;;0.86;64.79;100752.90;470708;1171;114145;-63
2021/03/28 22:48:46;;;;;;;43.90;24.10;;;;;;;0.90;65.47;100744.25;470836;1171;114094;-63
2021/03/28 22:58:50;;;;;;;38.70;22.75;;;;;;;1.01;65.11;100739.03;471095;1171;114938;-63
2021/03/28 23:08:55;;;;;;;40.47;20.07;;;;;;;1.17;65.22;100738.92;471114;1171;114251;-63
2021/03/28 23:19:04;;;;;;;37.05;21.05;;;;;;;1.35;64.82;100743.98;470852;1171;114853;-63
2021/03/28 23:29:08;;;;;;;28.87;17.13;;;;;;;1.62;64.88;100743.78;471511;1171;114374;-62
2021/03/28 23:39:12;;;;;;;29.70;16.83;;;;;;;1.86;64.25;100744.43;471577;1170;114258;-63
2021/03/28 23:49:21;;;;;;;31.03;16.87;;;;;;;2.10;64.28;100746.77;470312;1171;114984;-64
2021/03/28 23:59:25;;;;;;;28.57;18.30;;;;;;;2.23;64.57;100744.89;471357;1171;114482;-64
